createdAt,value
2019-06-26T00:01:29.300Z,48.18
2019-06-26T00:03:55.888Z,47.03
2019-06-26T00:06:22.909Z,47.26
2019-06-26T00:08:49.943Z,47.01
2019-06-26T00:11:16.586Z,47.39
2019-06-26T00:13:43.152Z,47.79
2019-06-26T00:16:09.762Z,48.26
2019-06-26T00:18:36.390Z,47.63
2019-06-26T00:21:03.303Z,47.70
2019-06-26T00:23:30.094Z,46.99
2019-06-26T00:25:56.782Z,47.83
2019-06-26T00:28:23.442Z,47.87
2019-06-26T00:30:50.010Z,48.57
2019-06-26T00:33:16.870Z,48.98
2019-06-26T00:35:43.771Z,48.41
2019-06-26T00:38:10.404Z,48.31
2019-06-26T00:40:37.392Z,47.91
2019-06-26T00:43:04.104Z,48.20
2019-06-26T00:45:30.839Z,48.69
2019-06-26T00:47:57.585Z,49.60
2019-06-26T00:50:24.343Z,49.50
2019-06-26T00:52:50.995Z,48.99
2019-06-26T00:55:17.842Z,48.54
2019-06-26T00:57:44.406Z,49.55
2019-06-26T01:00:12.837Z,50.81
2019-06-26T01:02:39.859Z,48.51
2019-06-26T01:05:09.139Z,49.57
2019-06-26T01:07:35.919Z,48.80
2019-06-26T01:10:03.279Z,50.09
2019-06-26T01:12:30.041Z,50.20
2019-06-26T01:14:56.728Z,47.64
2019-06-26T01:17:23.432Z,46.76
2019-06-26T01:19:50.480Z,49.15
2019-06-26T01:22:17.059Z,49.61
2019-06-26T01:24:43.643Z,49.06
2019-06-26T01:27:10.214Z,50.26
2019-06-26T01:29:36.829Z,50.16
2019-06-26T01:32:03.814Z,49.88
2019-06-26T01:34:30.435Z,49.13
2019-06-26T01:36:57.061Z,47.70
2019-06-26T01:39:26.754Z,49.02
2019-06-26T01:41:54.358Z,48.38
2019-06-26T01:44:20.991Z,49.75
2019-06-26T01:46:47.607Z,49.05
2019-06-26T01:49:14.287Z,49.10
2019-06-26T01:51:40.900Z,48.46
2019-06-26T01:54:07.496Z,49.18
2019-06-26T01:56:35.474Z,49.39
2019-06-26T01:59:06.458Z,49.64
2019-06-26T02:01:33.055Z,49.30
2019-06-26T02:03:59.747Z,49.75
2019-06-26T02:06:26.359Z,50.02
2019-06-26T02:08:53.301Z,50.61
2019-06-26T02:11:19.962Z,49.68
2019-06-26T02:13:46.549Z,49.51
2019-06-26T02:16:13.111Z,50.40
2019-06-26T02:18:53.115Z,50.43
2019-06-26T02:21:19.894Z,50.55
2019-06-26T02:23:46.533Z,50.22
2019-06-26T02:26:13.113Z,49.95
2019-06-26T02:28:40.021Z,50.97
2019-06-26T02:31:06.624Z,50.77
2019-06-26T02:33:33.316Z,49.85
2019-06-26T02:36:00.199Z,49.83
2019-06-26T02:38:27.893Z,50.35
2019-06-26T02:40:54.696Z,49.40
2019-06-26T02:43:21.425Z,50.34
2019-06-26T02:45:48.100Z,50.63
2019-06-26T02:48:14.677Z,49.94
2019-06-26T02:50:41.676Z,50.76
2019-06-26T02:53:09.250Z,50.57
2019-06-26T02:55:35.891Z,50.59
2019-06-26T02:58:02.562Z,50.42
2019-06-26T03:00:29.435Z,49.62
2019-06-26T03:02:56.422Z,50.53
2019-06-26T03:05:23.104Z,51.56
2019-06-26T03:07:49.721Z,51.16
2019-06-26T03:10:16.408Z,50.16
2019-06-26T03:12:43.377Z,52.04
2019-06-26T03:15:10.116Z,50.93
2019-06-26T03:17:36.793Z,51.40
2019-06-26T03:20:03.971Z,51.18
2019-06-26T03:22:30.650Z,50.60
2019-06-26T03:24:57.261Z,51.66
2019-06-26T03:27:26.291Z,49.53
2019-06-26T03:29:53.165Z,48.66
2019-06-26T03:32:19.786Z,50.81
2019-06-26T03:34:46.804Z,49.54
2019-06-26T03:37:15.661Z,50.01
2019-06-26T03:39:42.511Z,49.63
2019-06-26T03:42:09.162Z,49.00
2019-06-26T03:44:35.902Z,46.86
2019-06-26T03:47:02.904Z,47.68
2019-06-26T03:49:29.491Z,45.45
2019-06-26T03:51:56.179Z,47.47
2019-06-26T03:54:25.491Z,45.97
2019-06-26T03:56:52.152Z,46.73
2019-06-26T03:59:18.784Z,48.12
2019-06-26T04:01:45.473Z,45.73
2019-06-26T04:04:12.079Z,47.29
2019-06-26T04:06:44.439Z,45.46
2019-06-26T04:09:11.346Z,45.23
2019-06-26T04:11:40.359Z,45.01
2019-06-26T04:14:06.998Z,44.69
2019-06-26T04:16:33.905Z,45.93
2019-06-26T04:19:00.508Z,47.03
2019-06-26T04:21:27.145Z,45.82
2019-06-26T04:23:53.813Z,45.94
2019-06-26T04:26:20.364Z,45.68
2019-06-26T04:28:46.923Z,44.56
2019-06-26T04:31:16.581Z,45.47
2019-06-26T04:33:43.137Z,45.94
2019-06-26T04:36:11.015Z,46.12
2019-06-26T04:38:37.661Z,46.72
2019-06-26T04:41:15.334Z,44.18
2019-06-26T04:43:44.169Z,43.75
2019-06-26T04:46:11.267Z,45.04
2019-06-26T04:48:38.091Z,45.37
2019-06-26T04:51:04.697Z,45.65
2019-06-26T04:53:33.985Z,45.74
2019-06-26T04:56:00.869Z,44.88
2019-06-26T04:58:27.548Z,41.97
2019-06-26T05:00:54.220Z,42.63
2019-06-26T05:03:20.812Z,43.22
2019-06-26T05:05:47.611Z,43.58
2019-06-26T05:08:14.275Z,42.18
2019-06-26T05:10:40.864Z,41.21
2019-06-26T05:13:07.435Z,41.63
2019-06-26T05:15:34.059Z,41.29
2019-06-26T05:18:00.694Z,40.51
2019-06-26T05:20:27.242Z,40.92
2019-06-26T05:22:53.821Z,40.50
2019-06-26T05:25:21.404Z,39.76
2019-06-26T05:27:48.284Z,41.15
2019-06-26T05:30:14.961Z,41.56
2019-06-26T05:32:41.542Z,41.08
2019-06-26T05:35:08.461Z,41.70
2019-06-26T05:37:35.067Z,40.78
2019-06-26T05:40:01.912Z,41.16
2019-06-26T05:42:28.585Z,41.43
2019-06-26T05:44:55.376Z,40.37
2019-06-26T05:47:22.318Z,40.04
2019-06-26T05:49:48.898Z,39.74
2019-06-26T05:52:16.735Z,40.67
2019-06-26T05:54:43.649Z,40.83
2019-06-26T05:57:10.750Z,40.85
2019-06-26T05:59:37.712Z,38.83
2019-06-26T06:02:04.362Z,38.27
2019-06-26T06:04:31.055Z,39.12
2019-06-26T06:06:57.631Z,39.93
2019-06-26T06:09:24.328Z,39.17
2019-06-26T06:11:54.982Z,37.91
2019-06-26T06:14:21.541Z,38.98
2019-06-26T06:16:48.255Z,38.60
2019-06-26T06:19:15.680Z,39.62
2019-06-26T06:21:42.498Z,40.02
2019-06-26T06:24:09.168Z,41.00
2019-06-26T06:26:36.097Z,41.48
2019-06-26T06:29:02.894Z,41.14
2019-06-26T06:31:31.831Z,39.68
2019-06-26T06:33:58.411Z,39.16
2019-06-26T06:36:25.155Z,38.71
2019-06-26T06:38:51.782Z,39.17
2019-06-26T06:41:18.358Z,38.73
2019-06-26T06:43:44.991Z,36.24
2019-06-26T06:46:11.820Z,37.70
2019-06-26T06:48:38.545Z,36.61
2019-06-26T06:51:06.466Z,36.22
2019-06-26T06:53:33.107Z,35.55
2019-06-26T06:56:00.149Z,33.87
2019-06-26T06:58:30.075Z,34.20
2019-06-26T07:00:55.454Z,34.32
2019-06-26T07:03:22.045Z,33.88
2019-06-26T07:05:48.730Z,32.60
2019-06-26T07:08:15.410Z,29.97
2019-06-26T07:10:42.065Z,32.49
2019-06-26T07:13:08.766Z,33.16
2019-06-26T07:15:35.472Z,31.53
2019-06-26T07:20:37.953Z,31.31
2019-06-26T07:23:04.562Z,31.06
2019-06-26T07:25:34.449Z,32.41
2019-06-26T07:28:02.281Z,30.89
2019-06-26T07:30:28.885Z,30.82
2019-06-26T07:32:55.571Z,30.74
2019-06-26T07:35:22.362Z,30.50
2019-06-26T07:37:48.970Z,30.50
2019-06-26T07:40:15.986Z,28.26
2019-06-26T07:42:42.834Z,29.79
2019-06-26T07:45:10.084Z,27.72
2019-06-26T07:47:43.085Z,27.86
2019-06-26T07:50:05.969Z,27.28
2019-06-26T07:52:32.570Z,27.47
2019-06-26T07:54:59.367Z,27.21
2019-06-26T07:57:26.391Z,28.87
2019-06-26T07:59:53.015Z,28.53
2019-06-26T08:02:19.681Z,26.60
2019-06-26T08:04:46.416Z,29.36
2019-06-26T08:07:13.259Z,27.68
2019-06-26T08:09:39.882Z,28.32
2019-06-26T08:12:06.459Z,30.13
2019-06-26T08:14:33.427Z,30.14
2019-06-26T08:17:00.037Z,28.30
2019-06-26T08:19:26.889Z,28.62
2019-06-26T08:21:53.626Z,28.35
2019-06-26T08:24:20.385Z,28.99
2019-06-26T08:26:46.976Z,28.57
2019-06-26T08:29:13.541Z,28.95
2019-06-26T08:31:40.386Z,29.39
2019-06-26T08:34:06.968Z,28.76
2019-06-26T08:36:33.560Z,27.65
2019-06-26T08:39:00.308Z,26.81
2019-06-26T08:41:26.932Z,26.44
2019-06-26T08:43:55.319Z,25.67
2019-06-26T08:46:22.006Z,25.63
2019-06-26T08:48:51.849Z,25.43
2019-06-26T08:51:17.546Z,26.68
2019-06-26T08:53:44.149Z,27.52
2019-06-26T08:56:10.892Z,25.30
2019-06-26T08:58:37.606Z,26.60
2019-06-26T09:01:04.422Z,28.04
2019-06-26T09:03:30.993Z,25.90
2019-06-26T09:05:58.006Z,28.80
2019-06-26T09:08:24.811Z,26.48
2019-06-26T09:10:52.460Z,25.87
2019-06-26T09:13:19.055Z,28.13
2019-06-26T09:15:49.959Z,28.05
2019-06-26T09:18:14.671Z,28.22
2019-06-26T09:20:41.368Z,29.37
2019-06-26T09:23:08.241Z,27.82
2019-06-26T09:25:34.925Z,26.38
2019-06-26T09:28:01.920Z,27.87
2019-06-26T09:30:29.506Z,27.94
2019-06-26T09:32:56.082Z,26.33
2019-06-26T09:35:22.669Z,28.06
2019-06-26T09:37:49.249Z,24.87
2019-06-26T09:40:16.194Z,27.53
2019-06-26T09:42:42.875Z,26.96
2019-06-26T09:45:09.608Z,26.07
2019-06-26T09:47:36.222Z,28.73
2019-06-26T09:50:03.402Z,25.75
2019-06-26T09:52:30.204Z,27.55
2019-06-26T09:54:56.833Z,28.99
2019-06-26T09:57:23.562Z,31.09
2019-06-26T09:59:50.218Z,29.36
2019-06-26T10:02:16.958Z,25.78
2019-06-26T10:04:43.703Z,25.28
2019-06-26T10:07:10.329Z,26.90
2019-06-26T10:09:36.980Z,27.01
2019-06-26T10:12:03.922Z,25.91
2019-06-26T10:14:46.489Z,29.06
2019-06-26T10:16:59.350Z,26.17
2019-06-26T10:19:26.175Z,27.87
2019-06-26T10:21:52.824Z,26.64
2019-06-26T10:24:19.543Z,26.39
2019-06-26T10:26:46.339Z,23.86
2019-06-26T10:29:12.901Z,26.91
2019-06-26T10:31:39.602Z,26.24
2019-06-26T10:34:09.805Z,22.28
2019-06-26T10:36:34.972Z,25.01
2019-06-26T10:39:01.661Z,26.81
2019-06-26T10:41:30.229Z,25.69
2019-06-26T10:43:56.806Z,23.28
2019-06-26T10:46:23.395Z,25.72
2019-06-26T10:48:50.025Z,25.00
2019-06-26T10:51:16.704Z,24.71
2019-06-26T10:53:43.319Z,25.07
2019-06-26T10:56:10.010Z,24.95
2019-06-26T10:58:36.685Z,25.87
2019-06-26T11:01:03.523Z,23.46
2019-06-26T11:03:30.763Z,25.74
2019-06-26T11:05:57.397Z,25.28
2019-06-26T11:08:23.975Z,22.99
2019-06-26T11:10:50.638Z,24.94
2019-06-26T11:13:17.583Z,25.60
2019-06-26T11:15:44.167Z,24.25
2019-06-26T11:18:10.767Z,22.29
2019-06-26T11:20:38.376Z,24.05
2019-06-26T11:23:05.361Z,25.73
2019-06-26T11:25:32.050Z,23.99
2019-06-26T11:27:58.682Z,23.28
2019-06-26T11:30:25.647Z,21.37
2019-06-26T11:32:52.335Z,24.68
2019-06-26T11:35:19.257Z,23.32
2019-06-26T11:37:45.953Z,24.22
2019-06-26T11:40:13.106Z,23.22
2019-06-26T11:42:39.692Z,25.10
2019-06-26T11:45:06.645Z,24.14
2019-06-26T11:47:34.467Z,25.05
2019-06-26T11:50:01.483Z,25.12
2019-06-26T11:52:28.215Z,24.31
2019-06-26T11:55:02.754Z,27.34
2019-06-26T11:57:23.935Z,27.30
2019-06-26T11:59:50.535Z,26.50
2019-06-26T12:02:17.317Z,25.64
2019-06-26T12:04:45.252Z,25.18
2019-06-26T12:07:12.291Z,26.91
2019-06-26T12:09:40.128Z,24.92
2019-06-26T12:12:07.061Z,22.57
2019-06-26T12:14:33.818Z,24.10
2019-06-26T12:17:00.437Z,26.29
2019-06-26T12:19:27.045Z,26.87
2019-06-26T12:21:53.711Z,27.52
2019-06-26T12:24:20.441Z,26.35
2019-06-26T12:26:47.068Z,27.11
2019-06-26T12:29:13.772Z,27.57
2019-06-26T12:31:40.841Z,28.75
2019-06-26T12:34:07.484Z,29.41
2019-06-26T12:36:34.145Z,29.35
2019-06-26T12:39:00.762Z,27.82
2019-06-26T12:41:27.377Z,27.16
2019-06-26T12:43:54.022Z,28.66
2019-06-26T12:46:21.578Z,28.85
2019-06-26T12:48:48.261Z,30.30
2019-06-26T12:51:15.092Z,32.56
2019-06-26T12:53:41.842Z,31.84
2019-06-26T12:56:08.536Z,30.44
2019-06-26T12:58:35.266Z,29.75
2019-06-26T13:01:03.104Z,29.98
2019-06-26T13:03:29.783Z,28.76
2019-06-26T13:05:56.446Z,29.71
2019-06-26T13:08:23.027Z,29.37
2019-06-26T13:10:50.588Z,29.35
2019-06-26T13:13:17.496Z,28.45
2019-06-26T13:15:44.065Z,29.71
2019-06-26T13:18:10.658Z,31.32
2019-06-26T13:20:51.690Z,31.32
2019-06-26T13:23:05.879Z,30.83
2019-06-26T13:25:32.531Z,32.48
2019-06-26T13:27:59.166Z,31.28
2019-06-26T13:30:33.438Z,29.90
2019-06-26T13:33:01.151Z,30.45
2019-06-26T13:35:28.092Z,31.23
2019-06-26T13:37:54.871Z,31.86
2019-06-26T13:40:21.448Z,34.47
2019-06-26T13:42:48.081Z,36.04
2019-06-26T13:45:15.292Z,34.74
2019-06-26T13:47:41.951Z,35.20
2019-06-26T13:50:08.628Z,35.93
2019-06-26T13:52:35.271Z,36.68
2019-06-26T13:55:01.945Z,35.41
2019-06-26T13:57:28.873Z,37.07
2019-06-26T13:59:55.835Z,37.15
2019-06-26T14:02:22.522Z,37.74
2019-06-26T14:04:49.262Z,38.56
2019-06-26T14:07:16.021Z,38.35
2019-06-26T14:09:42.639Z,38.56
2019-06-26T14:12:09.527Z,40.29
2019-06-26T14:14:52.535Z,38.92
2019-06-26T14:17:04.885Z,40.35
2019-06-26T14:19:31.691Z,39.41
2019-06-26T14:21:58.631Z,40.23
2019-06-26T14:24:25.240Z,39.90
2019-06-26T14:26:51.890Z,39.66
2019-06-26T14:29:21.363Z,39.41
2019-06-26T14:31:46.960Z,38.23
2019-06-26T14:34:13.607Z,41.33
2019-06-26T14:36:40.176Z,41.40
2019-06-26T14:39:07.055Z,39.10
2019-06-26T14:41:34.112Z,42.17
2019-06-26T14:44:00.931Z,40.85
2019-06-26T14:46:29.801Z,40.09
2019-06-26T14:48:56.400Z,40.26
2019-06-26T14:51:23.025Z,40.02
2019-06-26T14:53:49.672Z,40.97
2019-06-26T14:56:16.274Z,40.42
2019-06-26T14:58:43.892Z,41.52
2019-06-26T15:01:10.480Z,42.62
2019-06-26T15:03:37.266Z,43.60
2019-06-26T15:06:15.745Z,42.64
2019-06-26T15:08:32.536Z,41.26
2019-06-26T15:10:59.122Z,41.00
2019-06-26T15:13:25.891Z,41.56
2019-06-26T15:15:54.731Z,41.14
2019-06-26T15:18:21.036Z,42.44
2019-06-26T15:20:47.976Z,44.15
2019-06-26T15:23:14.782Z,42.11
2019-06-26T15:25:41.350Z,41.69
2019-06-26T15:28:10.454Z,41.33
2019-06-26T15:30:37.159Z,40.79
2019-06-26T15:33:03.937Z,42.33
2019-06-26T15:35:30.966Z,42.13
2019-06-26T15:37:57.578Z,41.15
2019-06-26T15:40:24.318Z,41.12
2019-06-26T15:42:50.979Z,41.42
2019-06-26T15:45:20.644Z,42.92
2019-06-26T15:47:46.441Z,40.31
2019-06-26T15:50:15.257Z,41.72
2019-06-26T15:52:41.923Z,42.65
2019-06-26T15:55:09.933Z,38.53
2019-06-26T15:57:36.587Z,39.75
2019-06-26T16:00:04.445Z,41.63
2019-06-26T16:02:31.145Z,40.51
2019-06-26T16:04:57.804Z,40.39
2019-06-26T16:07:24.391Z,39.49
2019-06-26T16:09:50.978Z,40.14
2019-06-26T16:12:17.595Z,41.31
2019-06-26T16:14:45.876Z,41.20
2019-06-26T16:17:25.644Z,42.40
2019-06-26T16:19:52.262Z,41.70
2019-06-26T16:22:31.764Z,40.35
2019-06-26T16:24:47.298Z,40.17
2019-06-26T16:27:13.928Z,41.05
2019-06-26T16:29:40.825Z,40.96
2019-06-26T16:32:07.418Z,41.64
2019-06-26T16:34:34.248Z,41.68
2019-06-26T16:37:00.852Z,41.78
2019-06-26T16:39:27.427Z,40.69
2019-06-26T16:41:53.993Z,39.13
2019-06-26T16:44:20.559Z,42.29
2019-06-26T16:46:47.229Z,41.63
2019-06-26T16:49:13.866Z,43.39
2019-06-26T16:51:40.598Z,42.50
2019-06-26T16:54:07.296Z,43.33
2019-06-26T16:56:36.341Z,42.53
2019-06-26T16:59:03.139Z,42.78
2019-06-26T17:01:29.737Z,42.47
2019-06-26T17:03:57.408Z,41.85
2019-06-26T17:06:24.188Z,40.43
2019-06-26T17:08:50.788Z,41.12
2019-06-26T17:11:17.618Z,41.34
2019-06-26T17:13:44.543Z,42.53
2019-06-26T17:16:11.228Z,41.65
2019-06-26T17:18:37.816Z,43.78
2019-06-26T17:21:05.787Z,41.95
2019-06-26T17:23:32.673Z,42.64
2019-06-26T17:25:59.453Z,44.38
2019-06-26T17:28:26.400Z,44.68
2019-06-26T17:30:53.150Z,43.88
2019-06-26T17:33:19.791Z,44.45
2019-06-26T17:35:46.413Z,44.08
2019-06-26T17:38:12.982Z,43.54
2019-06-26T17:40:39.926Z,42.98
2019-06-26T17:43:12.293Z,42.14
2019-06-26T17:45:35.235Z,44.23
2019-06-26T17:48:01.871Z,43.55
2019-06-26T17:50:28.795Z,44.54
2019-06-26T17:52:55.611Z,45.67
2019-06-26T17:55:22.373Z,46.71
2019-06-26T17:57:48.934Z,47.48
2019-06-26T18:00:17.870Z,47.11
2019-06-26T18:02:44.863Z,48.35
2019-06-26T18:05:11.737Z,49.03
2019-06-26T18:07:38.325Z,48.06
2019-06-26T18:10:05.124Z,46.47
2019-06-26T18:12:31.971Z,47.10
2019-06-26T18:15:00.604Z,48.20
2019-06-26T18:17:27.170Z,50.63
2019-06-26T18:19:54.153Z,50.29
2019-06-26T18:22:20.730Z,49.57
2019-06-26T18:24:47.293Z,48.12
2019-06-26T18:27:14.098Z,48.39
2019-06-26T18:29:40.794Z,48.40
2019-06-26T18:32:07.911Z,48.74
2019-06-26T18:34:34.513Z,49.68
2019-06-26T18:37:01.102Z,49.95
2019-06-26T18:39:27.942Z,50.57
2019-06-26T18:41:54.915Z,50.99
2019-06-26T18:44:21.496Z,50.57
2019-06-26T18:46:48.090Z,49.11
2019-06-26T18:49:14.650Z,49.29
2019-06-26T18:51:41.276Z,50.60
2019-06-26T18:54:08.120Z,51.48
2019-06-26T18:56:34.687Z,50.89
2019-06-26T18:59:01.597Z,49.25
2019-06-26T19:01:29.169Z,50.54
2019-06-26T19:03:55.793Z,48.23
2019-06-26T19:06:22.686Z,50.55
2019-06-26T19:08:49.362Z,48.93
2019-06-26T19:11:16.002Z,47.78
2019-06-26T19:13:42.672Z,50.05
2019-06-26T19:16:09.406Z,50.79
2019-06-26T19:18:36.305Z,50.94
2019-06-26T19:21:03.106Z,50.77
2019-06-26T19:23:29.788Z,48.67
2019-06-26T19:25:56.358Z,50.39
2019-06-26T19:28:23.319Z,49.92
2019-06-26T19:30:50.053Z,51.89
2019-06-26T19:33:16.732Z,51.73
2019-06-26T19:35:43.487Z,50.35
2019-06-26T19:38:10.509Z,49.27
2019-06-26T19:40:39.583Z,50.27
2019-06-26T19:43:06.227Z,47.93
2019-06-26T19:45:32.926Z,50.69
2019-06-26T19:47:59.476Z,50.43
2019-06-26T19:50:27.051Z,50.04
2019-06-26T19:52:53.670Z,52.89
2019-06-26T19:55:20.273Z,51.28
2019-06-26T19:57:47.302Z,52.15
2019-06-26T20:00:13.993Z,50.36
2019-06-26T20:02:40.758Z,50.79
2019-06-26T20:05:07.911Z,50.91
2019-06-26T20:07:36.393Z,51.07
2019-06-26T20:10:03.376Z,51.50
2019-06-26T20:12:30.123Z,51.63
2019-06-26T20:14:56.711Z,51.44
2019-06-26T20:17:23.318Z,53.53
2019-06-26T20:19:50.051Z,52.32
2019-06-26T20:22:16.620Z,53.45
2019-06-26T20:24:44.779Z,53.68
2019-06-26T20:27:11.621Z,53.60
2019-06-26T20:29:38.285Z,53.92
2019-06-26T20:32:04.903Z,55.12
2019-06-26T20:34:31.529Z,53.59
2019-06-26T20:36:58.144Z,53.75
2019-06-26T20:39:25.050Z,54.57
2019-06-26T20:41:51.728Z,54.67
2019-06-26T20:44:18.362Z,51.17
2019-06-26T20:46:44.943Z,51.51
2019-06-26T20:49:11.770Z,51.54
2019-06-26T20:51:38.402Z,52.30
2019-06-26T20:54:04.994Z,51.88
2019-06-26T20:56:31.659Z,52.79
2019-06-26T20:58:58.872Z,54.00
2019-06-26T21:01:26.536Z,53.77
2019-06-26T21:03:53.379Z,55.21
2019-06-26T21:06:19.926Z,54.38
2019-06-26T21:08:46.528Z,54.90
2019-06-26T21:11:15.739Z,54.92
2019-06-26T21:13:41.586Z,53.91
2019-06-26T21:16:08.268Z,55.04
2019-06-26T21:18:34.858Z,54.37
2019-06-26T21:21:01.621Z,56.18
2019-06-26T21:23:28.177Z,55.59
2019-06-26T21:25:54.782Z,52.37
2019-06-26T21:28:21.509Z,55.48
2019-06-26T21:30:48.117Z,51.38
2019-06-26T21:33:14.672Z,50.74
2019-06-26T21:35:41.314Z,53.37
2019-06-26T21:38:07.919Z,52.56
2019-06-26T21:40:34.856Z,51.61
2019-06-26T21:43:01.472Z,53.22
2019-06-26T21:45:28.062Z,52.88
2019-06-26T21:47:54.729Z,55.07
2019-06-26T21:50:21.335Z,53.16
2019-06-26T21:52:48.745Z,52.78
2019-06-26T21:55:15.341Z,54.79
2019-06-26T21:58:00.834Z,53.79
2019-06-26T22:00:46.400Z,55.15
2019-06-26T22:03:31.541Z,55.64
2019-06-26T22:06:00.236Z,54.56
2019-06-26T22:08:37.774Z,55.64
2019-06-26T22:11:06.056Z,55.39
2019-06-26T22:13:32.812Z,54.92
2019-06-26T22:15:59.814Z,53.87
2019-06-26T22:18:26.407Z,54.52
2019-06-26T22:20:53.017Z,55.91
2019-06-26T22:23:19.604Z,55.24
2019-06-26T22:25:50.841Z,54.66
2019-06-26T22:28:14.899Z,54.65
2019-06-26T22:30:42.319Z,53.77
2019-06-26T22:33:09.166Z,52.13
2019-06-26T22:35:36.136Z,53.55
2019-06-26T22:38:02.838Z,51.74
2019-06-26T22:40:29.466Z,50.87
2019-06-26T22:42:56.202Z,51.64
2019-06-26T22:45:22.786Z,52.43
2019-06-26T22:47:49.345Z,53.00
2019-06-26T22:50:16.035Z,53.42
2019-06-26T22:52:42.684Z,54.12
2019-06-26T22:55:09.431Z,54.03
2019-06-26T22:57:36.020Z,51.91
2019-06-26T23:00:03.361Z,52.57
2019-06-26T23:02:31.346Z,53.53
2019-06-26T23:04:58.184Z,52.11
2019-06-26T23:07:25.157Z,53.37
2019-06-26T23:09:51.797Z,51.91
2019-06-26T23:12:19.601Z,53.39
2019-06-26T23:14:46.392Z,52.66
2019-06-26T23:17:12.989Z,53.37
2019-06-26T23:19:39.662Z,53.57
2019-06-26T23:22:06.696Z,53.86
2019-06-26T23:24:33.389Z,53.67
2019-06-26T23:27:00.490Z,55.42
2019-06-26T23:29:27.236Z,52.61
2019-06-26T23:31:53.853Z,52.27
2019-06-26T23:34:21.547Z,53.38
2019-06-26T23:36:48.121Z,54.59
2019-06-26T23:39:14.956Z,53.62
2019-06-26T23:41:41.761Z,52.94
2019-06-26T23:44:08.348Z,52.67
2019-06-26T23:46:35.257Z,54.62
2019-06-26T23:49:01.815Z,52.91
2019-06-26T23:51:28.445Z,52.85
2019-06-26T23:53:55.018Z,53.94
2019-06-26T23:56:21.629Z,54.42
2019-06-26T23:58:48.321Z,55.90
